sensor_id;sensor_type;location;lat;lon;timestamp;pressure;altitude;pressure_sealevel;temperature;humidity
37764;BME280;23602;51.084;7.090;2023-12-04T00:01:45;99859.28;;;18.62;70.03
37764;BME280;23602;51.084;7.090;2023-12-04T00:04:10;99866.91;;;18.65;69.88
37764;BME280;23602;51.084;7.090;2023-12-04T00:06:36;99869.88;;;18.64;70.13
37764;BME280;23602;51.084;7.090;2023-12-04T00:09:01;99855.47;;;18.58;70.01
37764;BME280;23602;51.084;7.090;2023-12-04T00:11:26;99855.19;;;18.60;69.90
37764;BME280;23602;51.084;7.090;2023-12-04T00:13:51;99853.53;;;18.59;69.82
37764;BME280;23602;51.084;7.090;2023-12-04T00:16:17;99856.25;;;18.59;69.67
37764;BME280;23602;51.084;7.090;2023-12-04T00:18:43;99845.94;;;18.56;69.77
37764;BME280;23602;51.084;7.090;2023-12-04T00:21:08;99849.19;;;18.58;69.80
37764;BME280;23602;51.084;7.090;2023-12-04T00:23:34;99844.59;;;18.58;69.55
37764;BME280;23602;51.084;7.090;2023-12-04T00:25:59;99847.31;;;18.58;69.55
37764;BME280;23602;51.084;7.090;2023-12-04T00:28:24;99847.56;;;18.57;69.76
37764;BME280;23602;51.084;7.090;2023-12-04T00:30:50;99837.78;;;18.56;69.63
37764;BME280;23602;51.084;7.090;2023-12-04T00:33:15;99826.31;;;18.54;69.66
37764;BME280;23602;51.084;7.090;2023-12-04T00:35:40;99822.22;;;18.56;69.32
37764;BME280;23602;51.084;7.090;2023-12-04T00:38:05;99829.59;;;18.56;69.72
37764;BME280;23602;51.084;7.090;2023-12-04T00:40:31;99824.41;;;18.54;69.79
37764;BME280;23602;51.084;7.090;2023-12-04T00:42:56;99824.41;;;18.54;70.00
37764;BME280;23602;51.084;7.090;2023-12-04T00:45:21;99821.69;;;18.54;70.19
37764;BME280;23602;51.084;7.090;2023-12-04T00:47:46;99808.06;;;18.49;70.07
37764;BME280;23602;51.084;7.090;2023-12-04T00:50:12;99816.53;;;18.53;70.17
37764;BME280;23602;51.084;7.090;2023-12-04T00:52:37;99809.44;;;18.52;70.42
37764;BME280;23602;51.084;7.090;2023-12-04T00:55:02;99801.56;;;18.50;70.15
37764;BME280;23602;51.084;7.090;2023-12-04T00:57:28;99802.38;;;18.51;70.22
37764;BME280;23602;51.084;7.090;2023-12-04T00:59:53;99804.53;;;18.49;70.10
37764;BME280;23602;51.084;7.090;2023-12-04T01:02:19;99802.34;;;18.46;70.23
37764;BME280;23602;51.084;7.090;2023-12-04T01:04:44;99806.47;;;18.48;70.20
37764;BME280;23602;51.084;7.090;2023-12-04T01:07:09;99803.75;;;18.48;70.15
37764;BME280;23602;51.084;7.090;2023-12-04T01:09:35;99790.63;;;18.45;70.40
37764;BME280;23602;51.084;7.090;2023-12-04T01:12:01;99793.09;;;18.47;70.43
37764;BME280;23602;51.084;7.090;2023-12-04T01:14:26;99789.53;;;18.46;70.51
37764;BME280;23602;51.084;7.090;2023-12-04T01:16:51;99782.22;;;18.47;70.57
37764;BME280;23602;51.084;7.090;2023-12-04T01:19:17;99780.00;;;18.44;70.55
37764;BME280;23602;51.084;7.090;2023-12-04T01:21:42;99782.72;;;18.44;70.75
37764;BME280;23602;51.084;7.090;2023-12-04T01:24:07;99770.22;;;18.43;70.58
37764;BME280;23602;51.084;7.090;2023-12-04T01:26:32;99765.59;;;18.38;70.81
37764;BME280;23602;51.084;7.090;2023-12-04T01:28:58;99778.63;;;18.41;70.88
37764;BME280;23602;51.084;7.090;2023-12-04T01:31:23;99781.09;;;18.43;70.73
37764;BME280;23602;51.084;7.090;2023-12-04T01:33:48;99773.47;;;18.40;70.59
37764;BME280;23602;51.084;7.090;2023-12-04T01:36:14;99771.03;;;18.38;70.59
37764;BME280;23602;51.084;7.090;2023-12-04T01:38:39;99779.47;;;18.42;70.84
37764;BME280;23602;51.084;7.090;2023-12-04T01:41:05;99767.75;;;18.36;70.61
37764;BME280;23602;51.084;7.090;2023-12-04T01:43:30;99774.31;;;18.40;70.69
37764;BME280;23602;51.084;7.090;2023-12-04T01:45:56;99773.19;;;18.41;70.86
37764;BME280;23602;51.084;7.090;2023-12-04T01:48:23;99771.84;;;18.39;70.88
37764;BME280;23602;51.084;7.090;2023-12-04T01:50:48;99774.00;;;18.37;70.62
37764;BME280;23602;51.084;7.090;2023-12-04T01:53:14;99763.97;;;18.37;70.60
37764;BME280;23602;51.084;7.090;2023-12-04T01:55:40;99772.94;;;18.38;70.79
37764;BME280;23602;51.084;7.090;2023-12-04T01:58:06;99762.59;;;18.35;70.82
37764;BME280;23602;51.084;7.090;2023-12-04T02:00:32;99758.78;;;18.36;70.77
37764;BME280;23602;51.084;7.090;2023-12-04T02:02:58;99753.34;;;18.36;70.57
37764;BME280;23602;51.084;7.090;2023-12-04T02:05:24;99741.91;;;18.33;70.33
37764;BME280;23602;51.084;7.090;2023-12-04T02:07:51;99741.66;;;18.35;70.22
37764;BME280;23602;51.084;7.090;2023-12-04T02:10:16;99747.34;;;18.33;70.56
37764;BME280;23602;51.084;7.090;2023-12-04T02:12:41;99748.44;;;18.33;70.21
37764;BME280;23602;51.084;7.090;2023-12-04T02:15:07;99727.22;;;18.29;70.23
37764;BME280;23602;51.084;7.090;2023-12-04T02:17:34;99728.03;;;18.30;70.19
37764;BME280;23602;51.084;7.090;2023-12-04T02:19:59;99736.75;;;18.32;70.25
37764;BME280;23602;51.084;7.090;2023-12-04T02:22:25;99728.81;;;18.25;70.32
37764;BME280;23602;51.084;7.090;2023-12-04T02:24:50;99738.63;;;18.31;70.15
37764;BME280;23602;51.084;7.090;2023-12-04T02:27:25;99740.53;;;18.31;70.40
37764;BME280;23602;51.084;7.090;2023-12-04T02:29:53;99741.88;;;18.28;70.02
37764;BME280;23602;51.084;7.090;2023-12-04T02:32:21;99733.72;;;18.28;70.25
37764;BME280;23602;51.084;7.090;2023-12-04T02:34:49;99734.28;;;18.30;70.14
37764;BME280;23602;51.084;7.090;2023-12-04T02:37:16;99737.00;;;18.30;70.29
37764;BME280;23602;51.084;7.090;2023-12-04T02:39:43;99723.38;;;18.30;70.23
37764;BME280;23602;51.084;7.090;2023-12-04T02:42:08;99717.94;;;18.30;70.15
37764;BME280;23602;51.084;7.090;2023-12-04T02:44:34;99716.06;;;18.31;70.01
37764;BME280;23602;51.084;7.090;2023-12-04T02:46:59;99709.78;;;18.30;69.81
37764;BME280;23602;51.084;7.090;2023-12-04T02:49:25;99702.44;;;18.31;69.94
37764;BME280;23602;51.084;7.090;2023-12-04T02:51:50;99693.22;;;18.27;69.95
37764;BME280;23602;51.084;7.090;2023-12-04T02:54:15;99693.75;;;18.29;69.70
37764;BME280;23602;51.084;7.090;2023-12-04T02:56:40;99698.91;;;18.30;69.85
37764;BME280;23602;51.084;7.090;2023-12-04T02:59:06;99692.09;;;18.28;69.64
37764;BME280;23602;51.084;7.090;2023-12-04T03:01:31;99688.31;;;18.29;69.67
37764;BME280;23602;51.084;7.090;2023-12-04T03:03:56;99691.31;;;18.27;69.48
37764;BME280;23602;51.084;7.090;2023-12-04T03:06:21;99694.56;;;18.29;69.37
37764;BME280;23602;51.084;7.090;2023-12-04T03:08:47;99673.06;;;18.28;69.31
37764;BME280;23602;51.084;7.090;2023-12-04T03:11:12;99681.22;;;18.28;69.36
37764;BME280;23602;51.084;7.090;2023-12-04T03:13:38;99674.16;;;18.27;69.24
37764;BME280;23602;51.084;7.090;2023-12-04T03:16:03;99662.47;;;18.26;69.22
37764;BME280;23602;51.084;7.090;2023-12-04T03:18:29;99660.03;;;18.25;69.26
37764;BME280;23602;51.084;7.090;2023-12-04T03:20:54;99647.22;;;18.20;69.19
37764;BME280;23602;51.084;7.090;2023-12-04T03:23:20;99661.66;;;18.26;69.04
37764;BME280;23602;51.084;7.090;2023-12-04T03:25:45;99657.84;;;18.22;69.35
37764;BME280;23602;51.084;7.090;2023-12-04T03:28:10;99659.22;;;18.24;69.25
37764;BME280;23602;51.084;7.090;2023-12-04T03:30:35;99658.66;;;18.22;69.23
37764;BME280;23602;51.084;7.090;2023-12-04T03:33:01;99651.59;;;18.21;68.65
37764;BME280;23602;51.084;7.090;2023-12-04T03:35:26;99647.78;;;18.22;69.23
37764;BME280;23602;51.084;7.090;2023-12-04T03:37:51;99649.41;;;18.23;69.24
37764;BME280;23602;51.084;7.090;2023-12-04T03:40:17;99651.31;;;18.23;68.92
37764;BME280;23602;51.084;7.090;2023-12-04T03:42:43;99645.06;;;18.22;69.00
37764;BME280;23602;51.084;7.090;2023-12-04T03:45:08;99636.09;;;18.22;68.89
37764;BME280;23602;51.084;7.090;2023-12-04T03:47:34;99643.44;;;18.21;69.01
37764;BME280;23602;51.084;7.090;2023-12-04T03:49:59;99637.16;;;18.21;68.81
37764;BME280;23602;51.084;7.090;2023-12-04T03:52:24;99638.28;;;18.20;68.90
37764;BME280;23602;51.084;7.090;2023-12-04T03:54:50;99634.72;;;18.19;69.02
37764;BME280;23602;51.084;7.090;2023-12-04T03:57:15;99623.84;;;18.19;68.76
37764;BME280;23602;51.084;7.090;2023-12-04T03:59:40;99623.84;;;18.19;68.77
37764;BME280;23602;51.084;7.090;2023-12-04T04:02:05;99619.78;;;18.17;68.76
37764;BME280;23602;51.084;7.090;2023-12-04T04:04:31;99623.84;;;18.19;69.00
37764;BME280;23602;51.084;7.090;2023-12-04T04:06:56;99614.03;;;18.18;68.91
37764;BME280;23602;51.084;7.090;2023-12-04T04:09:22;99609.97;;;18.16;69.25
37764;BME280;23602;51.084;7.090;2023-12-04T04:11:47;99609.44;;;18.19;68.87
37764;BME280;23602;51.084;7.090;2023-12-04T04:14:12;99612.16;;;18.19;68.91
37764;BME280;23602;51.084;7.090;2023-12-04T04:16:38;99609.72;;;18.17;68.94
37764;BME280;23602;51.084;7.090;2023-12-04T04:19:03;99602.63;;;18.21;68.85
37764;BME280;23602;51.084;7.090;2023-12-04T04:21:28;99601.81;;;18.21;68.69
37764;BME280;23602;51.084;7.090;2023-12-04T04:23:53;99592.03;;;18.20;68.82
37764;BME280;23602;51.084;7.090;2023-12-04T04:26:19;99605.63;;;18.20;68.59
37764;BME280;23602;51.084;7.090;2023-12-04T04:28:44;99599.09;;;18.21;68.67
37764;BME280;23602;51.084;7.090;2023-12-04T04:31:10;99605.34;;;18.21;68.72
37764;BME280;23602;51.084;7.090;2023-12-04T04:33:35;99595.53;;;18.20;68.55
37764;BME280;23602;51.084;7.090;2023-12-04T04:36:00;99586.31;;;18.21;68.71
37764;BME280;23602;51.084;7.090;2023-12-04T04:38:26;99588.22;;;18.21;68.71
37764;BME280;23602;51.084;7.090;2023-12-04T04:40:51;99587.13;;;18.22;68.40
37764;BME280;23602;51.084;7.090;2023-12-04T04:43:18;99582.50;;;18.17;68.27
37764;BME280;23602;51.084;7.090;2023-12-04T04:45:43;99584.41;;;18.22;68.48
37764;BME280;23602;51.084;7.090;2023-12-04T04:48:08;99587.94;;;18.22;68.27
37764;BME280;23602;51.084;7.090;2023-12-04T04:50:34;99584.13;;;18.23;68.53
37764;BME280;23602;51.084;7.090;2023-12-04T04:52:59;99580.03;;;18.21;68.31
37764;BME280;23602;51.084;7.090;2023-12-04T04:55:25;99578.44;;;18.25;68.30
37764;BME280;23602;51.084;7.090;2023-12-04T04:57:50;99578.16;;;18.26;68.26
37764;BME280;23602;51.084;7.090;2023-12-04T05:00:15;99574.59;;;18.26;68.39
37764;BME280;23602;51.084;7.090;2023-12-04T05:02:41;99578.97;;;18.27;68.32
37764;BME280;23602;51.084;7.090;2023-12-04T05:05:07;99580.34;;;18.24;68.34
37764;BME280;23602;51.084;7.090;2023-12-04T05:07:32;99581.94;;;18.25;68.15
37764;BME280;23602;51.084;7.090;2023-12-04T05:09:57;99585.22;;;18.27;68.41
37764;BME280;23602;51.084;7.090;2023-12-04T05:12:22;99581.41;;;18.28;68.29
37764;BME280;23602;51.084;7.090;2023-12-04T05:14:48;99579.50;;;18.29;68.25
37764;BME280;23602;51.084;7.090;2023-12-04T05:17:13;99560.75;;;18.27;67.99
37764;BME280;23602;51.084;7.090;2023-12-04T05:19:38;99567.56;;;18.25;67.69
37764;BME280;23602;51.084;7.090;2023-12-04T05:22:04;99571.34;;;18.24;67.64
37764;BME280;23602;51.084;7.090;2023-12-04T05:24:29;99561.28;;;18.24;67.61
37764;BME280;23602;51.084;7.090;2023-12-04T05:26:54;99549.31;;;18.20;67.96
37764;BME280;23602;51.084;7.090;2023-12-04T05:29:19;99555.31;;;18.27;68.14
37764;BME280;23602;51.084;7.090;2023-12-04T05:31:45;99539.00;;;18.27;68.10
37764;BME280;23602;51.084;7.090;2023-12-04T05:34:10;99538.69;;;18.29;68.37
37764;BME280;23602;51.084;7.090;2023-12-04T05:36:35;99547.94;;;18.33;68.35
37764;BME280;23602;51.084;7.090;2023-12-04T05:39:01;99553.38;;;18.33;68.35
37764;BME280;23602;51.084;7.090;2023-12-04T05:41:26;99540.59;;;18.33;68.49
37764;BME280;23602;51.084;7.090;2023-12-04T05:43:51;99536.78;;;18.35;68.30
37764;BME280;23602;51.084;7.090;2023-12-04T05:46:16;99543.31;;;18.33;68.23
37764;BME280;23602;51.084;7.090;2023-12-04T05:48:42;99542.78;;;18.37;68.42
37764;BME280;23602;51.084;7.090;2023-12-04T05:51:07;99534.06;;;18.35;68.48
37764;BME280;23602;51.084;7.090;2023-12-04T05:53:32;99531.88;;;18.37;68.34
37764;BME280;23602;51.084;7.090;2023-12-04T05:55:58;99531.34;;;18.35;68.04
37764;BME280;23602;51.084;7.090;2023-12-04T05:58:23;99534.34;;;18.38;68.28
37764;BME280;23602;51.084;7.090;2023-12-04T06:00:48;99544.41;;;18.38;68.27
37764;BME280;23602;51.084;7.090;2023-12-04T06:03:13;99530.81;;;18.38;68.27
37764;BME280;23602;51.084;7.090;2023-12-04T06:05:39;99533.25;;;18.39;68.19
37764;BME280;23602;51.084;7.090;2023-12-04T06:08:04;99531.34;;;18.40;68.44
37764;BME280;23602;51.084;7.090;2023-12-04T06:10:29;99537.59;;;18.40;68.50
37764;BME280;23602;51.084;7.090;2023-12-04T06:12:55;99539.22;;;18.41;68.43
37764;BME280;23602;51.084;7.090;2023-12-04T06:15:20;99517.22;;;18.38;68.54
37764;BME280;23602;51.084;7.090;2023-12-04T06:17:46;99517.75;;;18.40;68.61
37764;BME280;23602;51.084;7.090;2023-12-04T06:20:11;99524.53;;;18.42;68.58
37764;BME280;23602;51.084;7.090;2023-12-04T06:22:37;99526.97;;;18.44;68.71
37764;BME280;23602;51.084;7.090;2023-12-04T06:25:03;99528.91;;;18.43;68.85
37764;BME280;23602;51.084;7.090;2023-12-04T06:27:28;99521.53;;;18.44;68.59
37764;BME280;23602;51.084;7.090;2023-12-04T06:29:54;99506.31;;;18.43;68.59
37764;BME280;23602;51.084;7.090;2023-12-04T06:32:20;99501.13;;;18.46;68.75
37764;BME280;23602;51.084;7.090;2023-12-04T06:34:45;99502.78;;;18.47;68.79
37764;BME280;23602;51.084;7.090;2023-12-04T06:37:12;99500.06;;;18.47;68.80
37764;BME280;23602;51.084;7.090;2023-12-04T06:39:39;99492.72;;;18.48;68.83
37764;BME280;23602;51.084;7.090;2023-12-04T06:42:06;99494.34;;;18.49;68.76
37764;BME280;23602;51.084;7.090;2023-12-04T06:44:32;99476.09;;;18.44;68.82
37764;BME280;23602;51.084;7.090;2023-12-04T06:46:59;99475.56;;;18.47;68.88
37764;BME280;23602;51.084;7.090;2023-12-04T06:49:28;99479.34;;;18.46;68.70
37764;BME280;23602;51.084;7.090;2023-12-04T06:51:54;99466.88;;;18.50;68.91
37764;BME280;23602;51.084;7.090;2023-12-04T06:54:20;99463.84;;;18.52;68.73
37764;BME280;23602;51.084;7.090;2023-12-04T06:56:45;99454.34;;;18.49;69.18
37764;BME280;23602;51.084;7.090;2023-12-04T06:59:10;99439.66;;;18.50;68.85
37764;BME280;23602;51.084;7.090;2023-12-04T07:01:35;99445.91;;;18.51;68.70
37764;BME280;23602;51.084;7.090;2023-12-04T07:04:01;99432.84;;;18.53;68.67
37764;BME280;23602;51.084;7.090;2023-12-04T07:06:26;99428.22;;;18.53;68.77
37764;BME280;23602;51.084;7.090;2023-12-04T07:08:51;99411.91;;;18.53;68.64
37764;BME280;23602;51.084;7.090;2023-12-04T07:11:16;99412.69;;;18.54;68.69
37764;BME280;23602;51.084;7.090;2023-12-04T07:13:42;99408.91;;;18.50;68.73
37764;BME280;23602;51.084;7.090;2023-12-04T07:16:07;99407.25;;;18.54;68.25
37764;BME280;23602;51.084;7.090;2023-12-04T07:18:33;99401.28;;;18.52;68.36
37764;BME280;23602;51.084;7.090;2023-12-04T07:20:58;99399.91;;;18.49;68.17
37764;BME280;23602;51.084;7.090;2023-12-04T07:23:23;99384.69;;;18.43;68.10
37764;BME280;23602;51.084;7.090;2023-12-04T07:25:49;99382.25;;;18.42;67.93
37764;BME280;23602;51.084;7.090;2023-12-04T07:28:16;99387.94;;;18.45;68.05
37764;BME280;23602;51.084;7.090;2023-12-04T07:30:42;99392.88;;;18.43;67.78
37764;BME280;23602;51.084;7.090;2023-12-04T07:33:07;99413.28;;;18.41;67.84
37764;BME280;23602;51.084;7.090;2023-12-04T07:35:32;99416.53;;;18.43;67.50
37764;BME280;23602;51.084;7.090;2023-12-04T07:37:57;99421.97;;;18.43;67.51
37764;BME280;23602;51.084;7.090;2023-12-04T07:40:23;99418.44;;;18.42;67.64
37764;BME280;23602;51.084;7.090;2023-12-04T07:42:48;99422.22;;;18.41;67.46
37764;BME280;23602;51.084;7.090;2023-12-04T07:45:13;99412.47;;;18.40;67.24
37764;BME280;23602;51.084;7.090;2023-12-04T07:47:41;99407.84;;;18.41;67.46
37764;BME280;23602;51.084;7.090;2023-12-04T07:50:06;99408.38;;;18.43;67.23
37764;BME280;23602;51.084;7.090;2023-12-04T07:52:32;99399.94;;;18.39;67.17
37764;BME280;23602;51.084;7.090;2023-12-04T07:54:57;99404.84;;;18.37;67.03
37764;BME280;23602;51.084;7.090;2023-12-04T07:57:22;99407.84;;;18.41;67.08
37764;BME280;23602;51.084;7.090;2023-12-04T07:59:48;99412.47;;;18.40;66.60
37764;BME280;23602;51.084;7.090;2023-12-04T08:02:13;99419.50;;;18.41;66.80
37764;BME280;23602;51.084;7.090;2023-12-04T08:04:38;99415.72;;;18.42;66.86
37764;BME280;23602;51.084;7.090;2023-12-04T08:07:03;99407.56;;;18.37;66.52
37764;BME280;23602;51.084;7.090;2023-12-04T08:09:29;99419.50;;;18.41;67.00
37764;BME280;23602;51.084;7.090;2023-12-04T08:11:54;99411.09;;;18.43;66.63
37764;BME280;23602;51.084;7.090;2023-12-04T08:14:19;99405.91;;;18.41;66.62
37764;BME280;23602;51.084;7.090;2023-12-04T08:16:45;99403.19;;;18.41;66.31
37764;BME280;23602;51.084;7.090;2023-12-04T08:19:10;99401.56;;;18.40;66.62
37764;BME280;23602;51.084;7.090;2023-12-04T08:21:35;99402.41;;;18.41;66.61
37764;BME280;23602;51.084;7.090;2023-12-04T08:24:00;99399.69;;;18.36;66.32
37764;BME280;23602;51.084;7.090;2023-12-04T08:26:26;99402.41;;;18.41;66.34
37764;BME280;23602;51.084;7.090;2023-12-04T08:28:52;99399.41;;;18.37;66.23
37764;BME280;23602;51.084;7.090;2023-12-04T08:31:17;99409.44;;;18.42;66.42
37764;BME280;23602;51.084;7.090;2023-12-04T08:33:43;99398.56;;;18.42;66.17
37764;BME280;23602;51.084;7.090;2023-12-04T08:36:09;99411.09;;;18.43;66.10
37764;BME280;23602;51.084;7.090;2023-12-04T08:38:35;99398.03;;;18.40;66.22
37764;BME280;23602;51.084;7.090;2023-12-04T08:41:01;99405.13;;;18.41;65.98
37764;BME280;23602;51.084;7.090;2023-12-04T08:43:26;99393.13;;;18.42;65.97
37764;BME280;23602;51.084;7.090;2023-12-04T08:45:52;99383.09;;;18.37;65.74
37764;BME280;23602;51.084;7.090;2023-12-04T08:48:17;99370.31;;;18.38;65.91
37764;BME280;23602;51.084;7.090;2023-12-04T08:50:42;99368.94;;;18.40;65.82
37764;BME280;23602;51.084;7.090;2023-12-04T08:53:08;99374.38;;;18.40;65.52
37764;BME280;23602;51.084;7.090;2023-12-04T08:55:33;99373.25;;;18.41;65.60
37764;BME280;23602;51.084;7.090;2023-12-04T08:57:58;99369.75;;;18.41;65.53
37764;BME280;23602;51.084;7.090;2023-12-04T09:00:23;99360.50;;;18.37;65.41
37764;BME280;23602;51.084;7.090;2023-12-04T09:02:49;99359.66;;;18.41;65.42
37764;BME280;23602;51.084;7.090;2023-12-04T09:05:14;99347.16;;;18.40;65.43
37764;BME280;23602;51.084;7.090;2023-12-04T09:07:40;99361.28;;;18.42;65.32
37764;BME280;23602;51.084;7.090;2023-12-04T09:10:06;99350.41;;;18.42;65.26
37764;BME280;23602;51.084;7.090;2023-12-04T09:12:31;99350.41;;;18.42;65.47
37764;BME280;23602;51.084;7.090;2023-12-04T09:14:56;99356.94;;;18.41;65.42
37764;BME280;23602;51.084;7.090;2023-12-04T09:17:22;99339.00;;;18.40;65.28
37764;BME280;23602;51.084;7.090;2023-12-04T09:19:47;99349.34;;;18.43;65.31
37764;BME280;23602;51.084;7.090;2023-12-04T09:22:12;99341.97;;;18.44;65.11
37764;BME280;23602;51.084;7.090;2023-12-04T09:24:38;99326.22;;;18.41;65.19
37764;BME280;23602;51.084;7.090;2023-12-04T09:27:03;99330.84;;;18.40;64.97
37764;BME280;23602;51.084;7.090;2023-12-04T09:29:28;99318.84;;;18.41;64.92
37764;BME280;23602;51.084;7.090;2023-12-04T09:31:54;99325.09;;;18.42;65.03
37764;BME280;23602;51.084;7.090;2023-12-04T09:34:19;99318.59;;;18.43;64.86
37764;BME280;23602;51.084;7.090;2023-12-04T09:36:46;99314.53;;;18.40;64.91
37764;BME280;23602;51.084;7.090;2023-12-04T09:39:12;99320.19;;;18.44;64.54
37764;BME280;23602;51.084;7.090;2023-12-04T09:41:39;99299.03;;;18.41;64.63
37764;BME280;23602;51.084;7.090;2023-12-04T09:44:04;99313.16;;;18.43;64.72
37764;BME280;23602;51.084;7.090;2023-12-04T09:46:31;99317.47;;;18.44;64.03
37764;BME280;23602;51.084;7.090;2023-12-04T09:48:57;99314.75;;;18.44;64.08
37764;BME280;23602;51.084;7.090;2023-12-04T09:51:23;99291.38;;;18.43;64.28
37764;BME280;23602;51.084;7.090;2023-12-04T09:53:51;99285.94;;;18.43;64.26
37764;BME280;23602;51.084;7.090;2023-12-04T09:56:17;99281.59;;;18.37;64.28
37764;BME280;23602;51.084;7.090;2023-12-04T09:58:44;99271.00;;;18.40;64.26
37764;BME280;23602;51.084;7.090;2023-12-04T10:01:11;99277.25;;;18.41;64.38
37764;BME280;23602;51.084;7.090;2023-12-04T10:03:36;99276.97;;;18.42;64.24
37764;BME280;23602;51.084;7.090;2023-12-04T10:06:02;99271.53;;;18.42;64.10
37764;BME280;23602;51.084;7.090;2023-12-04T10:08:29;99271.22;;;18.44;64.15
37764;BME280;23602;51.084;7.090;2023-12-04T10:10:54;99276.66;;;18.44;63.95
37764;BME280;23602;51.084;7.090;2023-12-04T10:13:20;99272.34;;;18.43;63.92
37764;BME280;23602;51.084;7.090;2023-12-04T10:15:49;99263.63;;;18.46;64.03
37764;BME280;23602;51.084;7.090;2023-12-04T10:18:28;99259.25;;;18.45;63.93
37764;BME280;23602;51.084;7.090;2023-12-04T10:20:56;99254.38;;;18.47;63.96
37764;BME280;23602;51.084;7.090;2023-12-04T10:23:22;99247.84;;;18.43;63.87
37764;BME280;23602;51.084;7.090;2023-12-04T10:25:50;99240.50;;;18.48;63.84
37764;BME280;23602;51.084;7.090;2023-12-04T10:28:17;99246.47;;;18.45;63.89
37764;BME280;23602;51.084;7.090;2023-12-04T10:30:43;99247.28;;;18.46;63.80
37764;BME280;23602;51.084;7.090;2023-12-04T10:33:09;99247.56;;;18.49;63.79
37764;BME280;23602;51.084;7.090;2023-12-04T10:35:37;99240.22;;;18.50;63.61
37764;BME280;23602;51.084;7.090;2023-12-04T10:38:04;99231.22;;;18.49;63.78
37764;BME280;23602;51.084;7.090;2023-12-04T10:40:31;99229.31;;;18.50;63.60
37764;BME280;23602;51.084;7.090;2023-12-04T10:45:33;99224.97;;;18.49;63.55
37764;BME280;23602;51.084;7.090;2023-12-04T10:47:59;99228.00;;;18.47;63.63
37764;BME280;23602;51.084;7.090;2023-12-04T10:50:24;99214.91;;;18.49;63.50
37764;BME280;23602;51.084;7.090;2023-12-04T10:52:51;99206.47;;;18.46;63.32
37764;BME280;23602;51.084;7.090;2023-12-04T10:55:19;99209.75;;;18.48;63.46
37764;BME280;23602;51.084;7.090;2023-12-04T10:57:44;99212.19;;;18.49;63.31
37764;BME280;23602;51.084;7.090;2023-12-04T11:00:12;99207.56;;;18.50;63.30
37764;BME280;23602;51.084;7.090;2023-12-04T11:02:43;99199.41;;;18.50;63.28
37764;BME280;23602;51.084;7.090;2023-12-04T11:05:14;99198.31;;;18.46;63.31
37764;BME280;23602;51.084;7.090;2023-12-04T11:07:48;99203.75;;;18.51;63.19
37764;BME280;23602;51.084;7.090;2023-12-04T11:10:15;99195.03;;;18.49;63.42
37764;BME280;23602;51.084;7.090;2023-12-04T11:12:44;99202.94;;;18.50;63.06
37764;BME280;23602;51.084;7.090;2023-12-04T11:15:14;99196.16;;;18.48;63.05
37764;BME280;23602;51.084;7.090;2023-12-04T11:17:42;99194.78;;;18.50;63.08
37764;BME280;23602;51.084;7.090;2023-12-04T11:20:16;99186.88;;;18.49;62.83
37764;BME280;23602;51.084;7.090;2023-12-04T11:22:45;99195.59;;;18.51;62.93
37764;BME280;23602;51.084;7.090;2023-12-04T11:25:13;99188.50;;;18.50;62.81
37764;BME280;23602;51.084;7.090;2023-12-04T11:27:39;99199.41;;;18.50;62.92
37764;BME280;23602;51.084;7.090;2023-12-04T11:30:06;99191.22;;;18.50;62.82
37764;BME280;23602;51.084;7.090;2023-12-04T11:32:43;99188.50;;;18.50;62.84
37764;BME280;23602;51.084;7.090;2023-12-04T11:35:12;99178.44;;;18.50;62.86
37764;BME280;23602;51.084;7.090;2023-12-04T11:37:39;99178.44;;;18.50;62.66
37764;BME280;23602;51.084;7.090;2023-12-04T11:40:06;99170.56;;;18.49;62.55
37764;BME280;23602;51.084;7.090;2023-12-04T11:42:32;99166.44;;;18.51;62.53
37764;BME280;23602;51.084;7.090;2023-12-04T11:44:58;99161.81;;;18.52;62.57
37764;BME280;23602;51.084;7.090;2023-12-04T11:47:24;99148.22;;;18.52;62.39
37764;BME280;23602;51.084;7.090;2023-12-04T11:49:49;99160.75;;;18.53;62.43
37764;BME280;23602;51.084;7.090;2023-12-04T11:52:15;99149.84;;;18.53;62.58
37764;BME280;23602;51.084;7.090;2023-12-04T11:57:23;99144.13;;;18.54;62.56
37764;BME280;23602;51.084;7.090;2023-12-04T11:59:51;99120.44;;;18.55;62.59
37764;BME280;23602;51.084;7.090;2023-12-04T12:02:16;99117.22;;;18.53;62.26
37764;BME280;23602;51.084;7.090;2023-12-04T12:04:42;99112.59;;;18.53;62.38
37764;BME280;23602;51.084;7.090;2023-12-04T12:07:08;99110.38;;;18.55;62.51
37764;BME280;23602;51.084;7.090;2023-12-04T12:09:33;99105.75;;;18.56;62.17
37764;BME280;23602;51.084;7.090;2023-12-04T12:12:02;99096.25;;;18.53;62.08
37764;BME280;23602;51.084;7.090;2023-12-04T12:14:30;99099.50;;;18.55;62.06
37764;BME280;23602;51.084;7.090;2023-12-04T12:16:59;99088.38;;;18.52;62.19
37764;BME280;23602;51.084;7.090;2023-12-04T12:19:24;99085.06;;;18.55;62.08
37764;BME280;23602;51.084;7.090;2023-12-04T12:21:50;99085.06;;;18.55;61.97
37764;BME280;23602;51.084;7.090;2023-12-04T12:24:17;99080.72;;;18.54;62.13
37764;BME280;23602;51.084;7.090;2023-12-04T12:26:42;99069.06;;;18.53;62.11
37764;BME280;23602;51.084;7.090;2023-12-04T12:29:08;99065.22;;;18.54;62.00
37764;BME280;23602;51.084;7.090;2023-12-04T12:31:34;99058.16;;;18.53;62.08
37764;BME280;23602;51.084;7.090;2023-12-04T12:34:00;99047.03;;;18.50;62.05
37764;BME280;23602;51.084;7.090;2023-12-04T12:36:25;99051.91;;;18.53;62.00
37764;BME280;23602;51.084;7.090;2023-12-04T12:38:50;99047.28;;;18.53;62.06
37764;BME280;23602;51.084;7.090;2023-12-04T12:41:17;99046.47;;;18.53;61.87
37764;BME280;23602;51.084;7.090;2023-12-04T12:43:43;99024.22;;;18.46;61.84
37764;BME280;23602;51.084;7.090;2023-12-04T12:46:09;99026.91;;;18.51;61.97
37764;BME280;23602;51.084;7.090;2023-12-04T12:48:35;99027.69;;;18.51;62.03
37764;BME280;23602;51.084;7.090;2023-12-04T12:51:02;99034.75;;;18.52;61.89
37764;BME280;23602;51.084;7.090;2023-12-04T12:53:27;99030.13;;;18.53;62.00
37764;BME280;23602;51.084;7.090;2023-12-04T12:55:52;99035.59;;;18.53;61.62
37764;BME280;23602;51.084;7.090;2023-12-04T12:58:18;99020.84;;;18.54;61.99